Time;durP1;ratioP1;P1;durP2;ratioP2;P2;SDS_P1;SDS_P2;PMS_P1;PMS_P2;Temp;Humidity;BMP_temperature;BMP_pressure;BME280_temperature;BME280_humidity;BME280_pressure;Samples;Min_cycle;Max_cycle;Signal;HPM_P1;HPM_P2
2021/08/18 00:02:59;;;;;;;31.77;10.05;;;;;;;;;;5090938;28;20043;-68
2021/08/18 00:06:04;;;;;;;29.73;10.23;;;;;;;;;;5091282;28;20038;-67
2021/08/18 00:09:08;;;;;;;42.80;10.27;;;;;;;;;;5091164;28;20050;-67
2021/08/18 00:12:12;;;;;;;30.40;10.35;;;;;;;;;;5091185;28;20234;-67
2021/08/18 00:15:17;;;;;;;38.15;10.57;;;;;;;;;;5090930;28;20118;-67
2021/08/18 00:18:22;;;;;;;30.92;10.38;;;;;;;;;;5090994;28;20408;-67
2021/08/18 00:21:26;;;;;;;36.13;10.73;;;;;;;;;;5091377;28;20106;-67
2021/08/18 00:24:31;;;;;;;33.15;10.25;;;;;;;;;;5091152;28;20043;-67
2021/08/18 00:27:35;;;;;;;29.48;9.98;;;;;;;;;;5091158;28;20039;-67
2021/08/18 00:30:39;;;;;;;29.98;10.38;;;;;;;;;;5091331;28;20036;-67
2021/08/18 00:33:43;;;;;;;29.25;10.13;;;;;;;;;;5091389;28;20047;-67
2021/08/18 00:36:48;;;;;;;32.50;10.07;;;;;;;;;;5090989;28;20055;-67
2021/08/18 00:39:52;;;;;;;34.53;10.02;;;;;;;;;;5091234;28;20043;-67
2021/08/18 00:42:56;;;;;;;38.15;10.27;;;;;;;;;;5089995;28;20051;-67
2021/08/18 00:46:01;;;;;;;37.08;10.50;;;;;;;;;;5090834;28;20076;-67
2021/08/18 00:49:05;;;;;;;38.78;10.55;;;;;;;;;;5090134;28;20043;-67
2021/08/18 00:52:10;;;;;;;30.30;10.93;;;;;;;;;;5093285;28;20046;-67
2021/08/18 00:55:16;;;;;;;30.70;10.30;;;;;;;;;;5094847;28;20051;-67
2021/08/18 00:58:20;;;;;;;30.83;9.48;;;;;;;;;;5094509;28;20055;-67
2021/08/18 01:01:24;;;;;;;32.55;10.75;;;;;;;;;;5094414;28;20028;-67
2021/08/18 01:04:28;;;;;;;29.88;10.02;;;;;;;;;;5094717;28;20054;-67
2021/08/18 01:07:34;;;;;;;27.13;9.27;;;;;;;;;;5094602;28;20155;-67
2021/08/18 01:10:38;;;;;;;29.45;10.10;;;;;;;;;;5094473;28;20423;-67
2021/08/18 01:13:44;;;;;;;28.95;9.68;;;;;;;;;;5094410;28;20054;-67
2021/08/18 01:16:49;;;;;;;26.40;10.63;;;;;;;;;;5094369;28;20395;-67
2021/08/18 01:19:53;;;;;;;25.35;10.68;;;;;;;;;;5094362;28;20534;-67
2021/08/18 01:23:02;;;;;;;33.13;10.82;;;;;;;;;;5094255;28;20043;-67
2021/08/18 01:26:06;;;;;;;23.80;8.93;;;;;;;;;;5094016;28;20054;-67
2021/08/18 01:29:10;;;;;;;25.65;9.20;;;;;;;;;;5094254;28;20047;-67
2021/08/18 01:32:15;;;;;;;28.70;9.52;;;;;;;;;;5093996;28;20039;-67
2021/08/18 01:35:24;;;;;;;34.42;9.43;;;;;;;;;;5093859;28;20035;-67
2021/08/18 01:38:28;;;;;;;26.98;9.05;;;;;;;;;;5093885;28;20051;-67
2021/08/18 01:41:32;;;;;;;31.58;8.52;;;;;;;;;;5093940;28;20041;-67
2021/08/18 01:44:36;;;;;;;26.42;8.93;;;;;;;;;;5094560;28;20039;-67
2021/08/18 01:47:41;;;;;;;28.95;9.23;;;;;;;;;;5093841;28;20040;-67
2021/08/18 01:50:46;;;;;;;31.23;8.65;;;;;;;;;;5093980;28;20035;-67
2021/08/18 01:53:50;;;;;;;23.88;9.48;;;;;;;;;;5093798;28;20039;-67
2021/08/18 01:56:54;;;;;;;28.75;9.48;;;;;;;;;;5093707;28;20040;-67
2021/08/18 01:59:58;;;;;;;31.13;8.38;;;;;;;;;;5093482;28;20044;-67
2021/08/18 02:03:03;;;;;;;27.85;8.45;;;;;;;;;;5092768;28;20392;-67
2021/08/18 02:06:07;;;;;;;24.65;8.48;;;;;;;;;;5093508;28;20032;-67
2021/08/18 02:09:11;;;;;;;28.88;8.77;;;;;;;;;;5093360;28;20380;-67
2021/08/18 02:12:15;;;;;;;25.42;8.65;;;;;;;;;;5093094;28;20468;-67
2021/08/18 02:15:25;;;;;;;26.10;9.40;;;;;;;;;;5092843;28;20040;-67
2021/08/18 02:18:30;;;;;;;24.17;8.43;;;;;;;;;;5093147;28;20043;-68
2021/08/18 02:21:34;;;;;;;28.15;9.00;;;;;;;;;;5093107;28;20498;-68
2021/08/18 02:24:39;;;;;;;31.52;10.55;;;;;;;;;;5093106;28;20077;-67
2021/08/18 02:27:43;;;;;;;31.38;9.43;;;;;;;;;;5093164;28;20043;-68
2021/08/18 02:30:48;;;;;;;40.78;8.95;;;;;;;;;;5092980;28;20032;-67
2021/08/18 02:33:52;;;;;;;26.83;9.40;;;;;;;;;;5093301;28;20041;-67
2021/08/18 02:36:56;;;;;;;25.83;8.60;;;;;;;;;;5092811;28;20040;-67
2021/08/18 02:40:01;;;;;;;29.45;9.32;;;;;;;;;;5092723;28;20040;-67
2021/08/18 02:43:05;;;;;;;36.90;10.13;;;;;;;;;;5092953;28;20065;-67
2021/08/18 02:46:09;;;;;;;27.88;9.68;;;;;;;;;;5092546;28;20059;-68
2021/08/18 02:49:15;;;;;;;29.02;9.88;;;;;;;;;;5092498;28;20043;-67
2021/08/18 02:52:20;;;;;;;35.47;9.65;;;;;;;;;;5092378;28;20036;-67
2021/08/18 02:55:25;;;;;;;36.03;10.27;;;;;;;;;;5092503;28;20499;-67
2021/08/18 02:58:30;;;;;;;25.70;9.20;;;;;;;;;;5092391;28;20538;-67
2021/08/18 03:01:34;;;;;;;26.25;9.32;;;;;;;;;;5092550;28;20577;-67
2021/08/18 03:04:38;;;;;;;34.88;10.13;;;;;;;;;;5092249;28;20039;-67
2021/08/18 03:07:43;;;;;;;34.20;9.80;;;;;;;;;;5091440;28;20059;-67
2021/08/18 03:10:47;;;;;;;32.75;10.02;;;;;;;;;;5092206;28;20028;-68
2021/08/18 03:13:51;;;;;;;28.65;9.23;;;;;;;;;;5091888;28;20055;-67
2021/08/18 03:16:56;;;;;;;27.48;11.13;;;;;;;;;;5091998;28;20039;-67
2021/08/18 03:20:00;;;;;;;27.85;9.82;;;;;;;;;;5092070;28;20154;-67
2021/08/18 03:23:04;;;;;;;29.38;10.98;;;;;;;;;;5091856;28;20048;-67
2021/08/18 03:26:09;;;;;;;26.40;9.85;;;;;;;;;;5091838;28;20039;-67
2021/08/18 03:29:13;;;;;;;30.45;10.73;;;;;;;;;;5091885;28;20040;-67
2021/08/18 03:32:18;;;;;;;25.42;10.07;;;;;;;;;;5092218;28;20039;-67
2021/08/18 03:35:22;;;;;;;30.25;9.98;;;;;;;;;;5091692;28;20054;-67
2021/08/18 03:38:26;;;;;;;29.25;9.85;;;;;;;;;;5091633;28;20417;-67
2021/08/18 03:41:31;;;;;;;29.90;9.77;;;;;;;;;;5091532;28;20032;-67
2021/08/18 03:44:35;;;;;;;26.08;9.73;;;;;;;;;;5091962;28;20501;-67
2021/08/18 03:47:40;;;;;;;24.60;10.20;;;;;;;;;;5091521;28;20043;-67
2021/08/18 03:50:44;;;;;;;23.00;9.10;;;;;;;;;;5091433;28;20039;-67
2021/08/18 03:53:48;;;;;;;28.80;9.30;;;;;;;;;;5091606;28;20039;-67
2021/08/18 03:56:52;;;;;;;35.55;10.30;;;;;;;;;;5091460;28;20040;-67
2021/08/18 03:59:57;;;;;;;38.42;11.30;;;;;;;;;;5091623;28;20055;-67
2021/08/18 04:03:01;;;;;;;30.88;9.48;;;;;;;;;;5091279;28;20510;-67
2021/08/18 04:06:06;;;;;;;27.15;9.73;;;;;;;;;;5091057;28;20036;-67
2021/08/18 04:09:10;;;;;;;31.58;10.45;;;;;;;;;;5091044;28;20042;-65
2021/08/18 04:12:14;;;;;;;36.72;10.27;;;;;;;;;;5091148;28;20055;-68
2021/08/18 04:15:19;;;;;;;28.02;8.82;;;;;;;;;;5090752;28;20055;-68
2021/08/18 04:18:23;;;;;;;31.88;10.27;;;;;;;;;;5090836;28;20048;-65
2021/08/18 04:21:28;;;;;;;31.90;10.32;;;;;;;;;;5090789;28;20051;-68
2021/08/18 04:24:32;;;;;;;31.90;12.18;;;;;;;;;;5091198;28;20059;-65
2021/08/18 04:27:37;;;;;;;26.05;10.93;;;;;;;;;;5090612;28;20046;-66
2021/08/18 04:30:42;;;;;;;30.33;11.13;;;;;;;;;;5091155;28;20077;-67
2021/08/18 04:33:47;;;;;;;27.60;11.32;;;;;;;;;;5091035;28;20321;-67
2021/08/18 04:36:51;;;;;;;29.60;11.27;;;;;;;;;;5091142;28;20043;-67
2021/08/18 04:39:55;;;;;;;28.30;11.70;;;;;;;;;;5090987;28;20564;-67
2021/08/18 04:42:59;;;;;;;31.50;12.20;;;;;;;;;;5090765;28;20047;-67
2021/08/18 04:46:04;;;;;;;35.35;11.02;;;;;;;;;;5090921;28;20035;-67
2021/08/18 04:49:08;;;;;;;28.15;11.05;;;;;;;;;;5090818;28;20035;-67
2021/08/18 04:52:12;;;;;;;39.22;11.60;;;;;;;;;;5090682;28;20055;-67
2021/08/18 04:55:17;;;;;;;39.25;12.57;;;;;;;;;;5090836;28;20060;-67
2021/08/18 04:58:21;;;;;;;27.73;11.07;;;;;;;;;;5090797;28;20412;-67
2021/08/18 05:01:25;;;;;;;36.95;12.88;;;;;;;;;;5090782;28;20047;-66
2021/08/18 05:04:30;;;;;;;26.67;11.93;;;;;;;;;;5090720;28;20047;-66
2021/08/18 05:07:34;;;;;;;35.88;11.98;;;;;;;;;;5090653;28;20047;-67
2021/08/18 05:10:38;;;;;;;31.77;12.90;;;;;;;;;;5090623;28;20511;-67
2021/08/18 05:13:44;;;;;;;31.10;11.90;;;;;;;;;;5090467;28;20434;-67
2021/08/18 05:16:48;;;;;;;35.05;12.98;;;;;;;;;;5090776;28;20039;-67
2021/08/18 05:19:52;;;;;;;39.47;13.65;;;;;;;;;;5090583;28;20059;-67
2021/08/18 05:22:57;;;;;;;36.03;13.60;;;;;;;;;;5090790;28;20055;-66
2021/08/18 05:26:01;;;;;;;34.03;13.45;;;;;;;;;;5090592;28;20597;-67
2021/08/18 05:29:05;;;;;;;34.67;13.07;;;;;;;;;;5090659;28;20058;-67
2021/08/18 05:32:10;;;;;;;39.83;12.48;;;;;;;;;;5089618;28;20043;-67
2021/08/18 05:35:15;;;;;;;30.23;13.32;;;;;;;;;;5090756;28;20043;-67
2021/08/18 05:38:19;;;;;;;23.77;12.23;;;;;;;;;;5091651;28;20047;-67
2021/08/18 05:41:23;;;;;;;52.53;13.75;;;;;;;;;;5093937;28;20039;-67
2021/08/18 05:44:27;;;;;;;63.55;14.38;;;;;;;;;;5094556;28;20043;-67
2021/08/18 05:47:31;;;;;;;33.72;13.15;;;;;;;;;;5093162;28;20514;-67
2021/08/18 05:50:36;;;;;;;34.67;14.13;;;;;;;;;;5093595;28;20398;-67
2021/08/18 05:53:40;;;;;;;34.40;13.82;;;;;;;;;;5093753;28;20043;-67
2021/08/18 05:56:44;;;;;;;32.90;13.02;;;;;;;;;;5093790;28;20050;-67
2021/08/18 05:59:49;;;;;;;34.10;13.23;;;;;;;;;;5093328;28;20055;-67
2021/08/18 06:02:53;;;;;;;36.03;13.18;;;;;;;;;;5093591;28;20043;-67
2021/08/18 06:05:57;;;;;;;30.98;13.55;;;;;;;;;;5093574;28;20043;-67
2021/08/18 06:09:02;;;;;;;34.80;14.10;;;;;;;;;;5093259;28;20043;-67
2021/08/18 06:12:07;;;;;;;38.75;14.30;;;;;;;;;;5093379;28;20047;-67
2021/08/18 06:15:11;;;;;;;44.53;15.02;;;;;;;;;;5092849;28;20051;-67
2021/08/18 06:18:15;;;;;;;49.67;15.52;;;;;;;;;;5093029;28;20047;-66
2021/08/18 06:21:20;;;;;;;43.88;15.25;;;;;;;;;;5093181;28;20051;-66
2021/08/18 06:24:40;;;;;;;35.92;14.23;;;;;;;;;;5092628;28;20043;-66
2021/08/18 06:27:44;;;;;;;46.45;14.57;;;;;;;;;;5093016;28;20194;-66
2021/08/18 06:30:49;;;;;;;37.78;14.50;;;;;;;;;;5092861;28;20039;-66
2021/08/18 06:33:53;;;;;;;54.20;18.63;;;;;;;;;;5092837;28;20059;-65
2021/08/18 06:37:01;;;;;;;61.47;20.30;;;;;;;;;;5092800;28;20043;-65
2021/08/18 06:40:10;;;;;;;67.10;21.00;;;;;;;;;;5092743;28;20055;-66
2021/08/18 06:43:14;;;;;;;52.97;16.65;;;;;;;;;;5092360;28;20039;-66
2021/08/18 06:46:18;;;;;;;50.67;17.40;;;;;;;;;;5092769;28;20042;-67
2021/08/18 06:49:23;;;;;;;50.67;15.73;;;;;;;;;;5092294;28;20499;-65
2021/08/18 06:52:28;;;;;;;53.67;16.38;;;;;;;;;;5092616;28;20059;-66
2021/08/18 06:55:34;;;;;;;50.75;15.05;;;;;;;;;;5092407;28;20055;-66
2021/08/18 06:58:38;;;;;;;46.67;15.07;;;;;;;;;;5092311;28;20050;-67
2021/08/18 07:01:43;;;;;;;48.00;14.75;;;;;;;;;;5092294;28;20047;-67
2021/08/18 07:04:47;;;;;;;38.35;15.15;;;;;;;;;;5092241;28;20062;-65
2021/08/18 07:07:52;;;;;;;40.30;13.90;;;;;;;;;;5092344;28;20039;-66
2021/08/18 07:10:56;;;;;;;37.15;13.27;;;;;;;;;;5092095;28;20047;-66
2021/08/18 07:14:01;;;;;;;34.63;13.23;;;;;;;;;;5091898;28;20067;-68
2021/08/18 07:17:06;;;;;;;36.65;14.82;;;;;;;;;;5092151;28;20083;-66
2021/08/18 07:20:11;;;;;;;30.75;12.32;;;;;;;;;;5091757;28;20436;-67
2021/08/18 07:23:15;;;;;;;86.40;18.55;;;;;;;;;;5091868;28;20380;-67
2021/08/18 07:26:21;;;;;;;24.05;10.27;;;;;;;;;;5092186;28;20494;-66
2021/08/18 07:29:26;;;;;;;33.85;9.38;;;;;;;;;;5091825;28;20042;-67
2021/08/18 07:32:31;;;;;;;31.15;11.85;;;;;;;;;;5091699;28;20036;-66
2021/08/18 07:35:35;;;;;;;30.10;10.55;;;;;;;;;;5091703;28;20063;-66
2021/08/18 07:38:39;;;;;;;22.00;9.15;;;;;;;;;;5091482;28;20051;-66
2021/08/18 07:41:44;;;;;;;25.80;10.02;;;;;;;;;;5091418;28;20365;-67
2021/08/18 07:44:48;;;;;;;32.63;11.23;;;;;;;;;;5092127;28;20475;-66
2021/08/18 07:47:52;;;;;;;36.88;10.52;;;;;;;;;;5091339;28;20039;-67
2021/08/18 07:50:57;;;;;;;34.63;11.57;;;;;;;;;;5091265;28;20043;-66
2021/08/18 07:54:01;;;;;;;31.08;9.55;;;;;;;;;;5091174;28;20043;-66
2021/08/18 07:57:06;;;;;;;24.60;9.23;;;;;;;;;;5091242;28;20039;-66
2021/08/18 08:00:10;;;;;;;32.75;9.10;;;;;;;;;;5090976;28;20122;-66
2021/08/18 08:03:16;;;;;;;35.72;10.15;;;;;;;;;;5091401;28;20535;-66
2021/08/18 08:06:20;;;;;;;31.25;9.82;;;;;;;;;;5091150;28;20084;-67
2021/08/18 08:09:25;;;;;;;34.70;9.95;;;;;;;;;;5078927;28;20174;-67
2021/08/18 08:12:29;;;;;;;33.45;9.70;;;;;;;;;;5091012;28;20047;-66
2021/08/18 08:15:34;;;;;;;22.58;9.18;;;;;;;;;;5090813;28;20043;-67
2021/08/18 08:18:38;;;;;;;26.65;9.95;;;;;;;;;;5091448;28;20072;-66
2021/08/18 08:21:43;;;;;;;24.85;9.05;;;;;;;;;;5090886;28;20427;-67
2021/08/18 08:24:47;;;;;;;24.05;8.57;;;;;;;;;;5091005;28;20031;-67
2021/08/18 08:27:51;;;;;;;23.60;8.30;;;;;;;;;;5091132;28;20511;-67
2021/08/18 08:30:56;;;;;;;22.60;9.73;;;;;;;;;;5090913;28;20110;-67
2021/08/18 08:34:00;;;;;;;23.70;9.45;;;;;;;;;;5091015;28;20496;-67
2021/08/18 08:37:04;;;;;;;23.13;8.68;;;;;;;;;;5091203;28;20040;-67
2021/08/18 08:40:09;;;;;;;32.67;9.68;;;;;;;;;;5090973;28;20048;-67
2021/08/18 08:43:14;;;;;;;25.20;8.88;;;;;;;;;;5091198;28;20047;-67
2021/08/18 08:46:18;;;;;;;21.40;8.65;;;;;;;;;;5090114;28;20499;-67
2021/08/18 08:49:23;;;;;;;20.35;9.02;;;;;;;;;;5090839;28;20041;-67
2021/08/18 08:52:27;;;;;;;25.92;9.30;;;;;;;;;;5091121;28;20040;-67
2021/08/18 08:55:31;;;;;;;20.67;9.05;;;;;;;;;;5090866;28;20400;-67
2021/08/18 08:58:36;;;;;;;24.90;8.85;;;;;;;;;;5090551;28;20110;-66
2021/08/18 09:02:00;;;;;;;30.70;10.02;;;;;;;;;;5090592;28;20047;-66
2021/08/18 09:05:04;;;;;;;23.25;8.43;;;;;;;;;;5090700;28;20047;-67
2021/08/18 09:08:10;;;;;;;59.13;11.55;;;;;;;;;;5090798;28;20031;-67
2021/08/18 09:11:15;;;;;;;23.05;9.15;;;;;;;;;;5090361;28;20396;-67
2021/08/18 09:14:29;;;;;;;19.80;9.18;;;;;;;;;;5093120;28;20040;-67
2021/08/18 09:17:36;;;;;;;19.25;8.52;;;;;;;;;;5093602;28;20032;-66
2021/08/18 09:20:41;;;;;;;26.10;9.98;;;;;;;;;;5094271;28;20044;-66
2021/08/18 09:23:45;;;;;;;23.10;8.48;;;;;;;;;;5094326;28;20487;-66
2021/08/18 09:26:54;;;;;;;19.52;8.35;;;;;;;;;;5094229;28;20032;-66
2021/08/18 09:29:58;;;;;;;16.75;7.70;;;;;;;;;;5094056;28;20040;-67
2021/08/18 09:33:16;;;;;;;29.60;8.95;;;;;;;;;;5094246;28;20036;-67
2021/08/18 09:36:24;;;;;;;25.58;9.23;;;;;;;;;;5094183;28;20035;-67
2021/08/18 09:39:28;;;;;;;54.85;12.10;;;;;;;;;;5093686;28;20044;-67
2021/08/18 09:42:33;;;;;;;43.97;15.55;;;;;;;;;;5093931;28;20506;-67
2021/08/18 09:45:39;;;;;;;31.63;14.73;;;;;;;;;;5093884;28;20051;-67
2021/08/18 09:48:44;;;;;;;22.60;11.75;;;;;;;;;;5094223;28;20047;-68
2021/08/18 09:51:58;;;;;;;39.75;12.00;;;;;;;;;;5093623;28;20043;-67
2021/08/18 09:55:03;;;;;;;23.58;12.27;;;;;;;;;;5093639;28;20348;-67
2021/08/18 09:58:17;;;;;;;32.92;12.57;;;;;;;;;;5093873;28;20043;-67
2021/08/18 10:01:22;;;;;;;33.22;11.98;;;;;;;;;;5093260;28;20051;-67
2021/08/18 10:04:26;;;;;;;27.25;11.20;;;;;;;;;;5093304;28;20043;-67
2021/08/18 10:07:30;;;;;;;19.65;10.68;;;;;;;;;;5093693;28;20047;-67
2021/08/18 10:10:37;;;;;;;20.98;10.38;;;;;;;;;;5091996;28;20043;-67
2021/08/18 10:13:42;;;;;;;22.30;10.27;;;;;;;;;;5093079;28;20297;-67
2021/08/18 10:16:46;;;;;;;17.27;9.95;;;;;;;;;;5092980;28;20297;-67
2021/08/18 10:19:53;;;;;;;25.55;11.70;;;;;;;;;;5093053;28;20427;-67
2021/08/18 10:23:02;;;;;;;21.50;10.70;;;;;;;;;;5092969;28;20491;-67
2021/08/18 10:26:06;;;;;;;39.97;12.93;;;;;;;;;;5092626;28;20043;-67
2021/08/18 10:29:13;;;;;;;22.42;11.73;;;;;;;;;;5092968;28;20514;-67
2021/08/18 10:32:19;;;;;;;21.15;11.27;;;;;;;;;;5092898;28;20059;-67
2021/08/18 10:35:53;;;;;;;30.25;12.88;;;;;;;;;;5092804;28;20039;-67
2021/08/18 10:39:17;;;;;;;23.25;11.85;;;;;;;;;;5092635;28;20058;-67
2021/08/18 10:42:36;;;;;;;23.58;12.10;;;;;;;;;;5092828;28;20039;-67
2021/08/18 10:45:55;;;;;;;28.38;11.80;;;;;;;;;;5092374;28;20047;-67
2021/08/18 10:49:01;;;;;;;28.25;11.88;;;;;;;;;;5092286;28;20047;-67
2021/08/18 10:52:05;;;;;;;31.70;12.15;;;;;;;;;;5092494;28;20415;-67
2021/08/18 10:55:13;;;;;;;23.08;12.02;;;;;;;;;;5092295;28;20506;-67
2021/08/18 10:58:36;;;;;;;22.15;11.80;;;;;;;;;;5092239;28;20391;-67
2021/08/18 11:01:43;;;;;;;29.30;12.32;;;;;;;;;;5092427;28;20541;-67
2021/08/18 11:04:49;;;;;;;20.88;12.35;;;;;;;;;;5092298;28;20050;-67
2021/08/18 11:07:59;;;;;;;26.73;12.73;;;;;;;;;;5092353;28;20503;-67
2021/08/18 11:11:05;;;;;;;22.23;12.52;;;;;;;;;;5092314;28;20044;-67
2021/08/18 11:14:10;;;;;;;21.75;11.52;;;;;;;;;;5092190;28;20044;-67
2021/08/18 11:17:14;;;;;;;22.85;12.55;;;;;;;;;;5092275;28;20043;-69
2021/08/18 11:20:19;;;;;;;32.80;12.15;;;;;;;;;;5091895;28;20518;-68
2021/08/18 11:23:24;;;;;;;26.63;11.95;;;;;;;;;;5091969;28;20051;-69
2021/08/18 11:26:32;;;;;;;19.98;10.93;;;;;;;;;;5092219;28;20055;-69
2021/08/18 11:29:38;;;;;;;21.80;12.20;;;;;;;;;;5091831;28;20510;-67
2021/08/18 11:32:42;;;;;;;21.65;10.10;;;;;;;;;;5091815;28;20594;-68
2021/08/18 11:35:46;;;;;;;29.77;10.55;;;;;;;;;;5091005;28;20059;-67
2021/08/18 11:38:58;;;;;;;23.13;9.93;;;;;;;;;;5091960;28;20549;-67
2021/08/18 11:42:12;;;;;;;23.95;9.77;;;;;;;;;;5091817;28;20518;-68
2021/08/18 11:45:17;;;;;;;22.77;9.32;;;;;;;;;;5091827;28;20044;-69
2021/08/18 11:48:22;;;;;;;22.27;9.13;;;;;;;;;;5091498;28;20036;-69
2021/08/18 11:51:26;;;;;;;28.33;9.10;;;;;;;;;;5091259;28;20042;-67
2021/08/18 11:54:30;;;;;;;29.75;10.93;;;;;;;;;;5091586;28;20044;-68
2021/08/18 11:57:35;;;;;;;17.17;8.45;;;;;;;;;;5091453;28;20047;-68
2021/08/18 12:00:40;;;;;;;21.98;9.30;;;;;;;;;;5091278;28;20040;-68
2021/08/18 12:03:45;;;;;;;26.58;8.88;;;;;;;;;;5091470;28;20391;-68
2021/08/18 12:07:13;;;;;;;28.13;9.75;;;;;;;;;;5091083;28;20072;-69
2021/08/18 12:10:18;;;;;;;19.33;9.13;;;;;;;;;;5091146;28;20044;-67
2021/08/18 12:13:22;;;;;;;25.88;8.65;;;;;;;;;;5091419;28;20365;-67
2021/08/18 12:16:28;;;;;;;26.13;9.57;;;;;;;;;;5091036;28;20074;-69
2021/08/18 12:19:36;;;;;;;24.88;9.07;;;;;;;;;;5090857;28;20047;-67
2021/08/18 12:22:40;;;;;;;31.40;9.88;;;;;;;;;;5091136;28;20043;-67
2021/08/18 12:25:44;;;;;;;24.75;8.98;;;;;;;;;;5091311;28;20041;-67
2021/08/18 12:28:56;;;;;;;25.70;9.40;;;;;;;;;;5090963;28;20040;-68
2021/08/18 12:32:02;;;;;;;23.58;9.57;;;;;;;;;;5090912;28;20036;-68
2021/08/18 12:35:07;;;;;;;29.67;9.43;;;;;;;;;;5090964;28;20388;-68
2021/08/18 12:38:11;;;;;;;37.72;10.48;;;;;;;;;;5090935;28;20036;-68
2021/08/18 12:41:15;;;;;;;23.75;9.13;;;;;;;;;;5089763;28;20043;-68
2021/08/18 12:44:28;;;;;;;18.08;8.95;;;;;;;;;;5090624;28;20031;-69
2021/08/18 12:47:36;;;;;;;23.77;9.50;;;;;;;;;;5092596;28;20036;-69
2021/08/18 12:50:41;;;;;;;25.48;8.98;;;;;;;;;;5095133;28;20399;-69
2021/08/18 12:53:45;;;;;;;31.38;9.02;;;;;;;;;;5094884;28;20028;-68
2021/08/18 12:56:50;;;;;;;27.98;9.13;;;;;;;;;;5094758;28;20395;-69
2021/08/18 12:59:54;;;;;;;52.78;11.43;;;;;;;;;;5094519;28;20059;-69
2021/08/18 13:02:58;;;;;;;29.42;9.10;;;;;;;;;;5094766;28;20043;-68
2021/08/18 13:06:03;;;;;;;29.02;8.63;;;;;;;;;;5094605;28;20036;-68
2021/08/18 13:09:07;;;;;;;35.30;9.85;;;;;;;;;;5094788;28;20043;-69
2021/08/18 13:12:13;;;;;;;22.15;8.90;;;;;;;;;;5094573;28;20035;-68
2021/08/18 13:15:17;;;;;;;22.33;8.20;;;;;;;;;;5094455;28;20051;-68
2021/08/18 13:18:21;;;;;;;25.77;8.63;;;;;;;;;;5094518;28;20565;-68
2021/08/18 13:21:25;;;;;;;46.88;12.32;;;;;;;;;;5094259;28;20052;-68
2021/08/18 13:24:30;;;;;;;26.70;8.60;;;;;;;;;;5093426;28;20059;-68
2021/08/18 13:27:34;;;;;;;30.92;9.75;;;;;;;;;;5094533;28;20040;-68
2021/08/18 13:30:38;;;;;;;28.15;9.60;;;;;;;;;;5094096;28;20411;-68
2021/08/18 13:33:42;;;;;;;42.40;10.68;;;;;;;;;;5094296;28;20060;-68
2021/08/18 13:36:47;;;;;;;23.65;8.82;;;;;;;;;;5094212;28;20039;-68
2021/08/18 13:39:51;;;;;;;32.03;9.15;;;;;;;;;;5094502;28;20044;-68
2021/08/18 13:42:56;;;;;;;39.33;9.25;;;;;;;;;;5094020;28;20036;-69
2021/08/18 13:46:00;;;;;;;19.33;8.80;;;;;;;;;;5093933;28;20035;-69
2021/08/18 13:49:04;;;;;;;19.75;9.60;;;;;;;;;;5093946;28;20504;-66
2021/08/18 13:52:09;;;;;;;28.48;9.02;;;;;;;;;;5093694;28;20039;-68
2021/08/18 13:55:13;;;;;;;34.45;10.05;;;;;;;;;;5093730;28;20032;-68
2021/08/18 13:58:17;;;;;;;30.02;9.70;;;;;;;;;;5093192;28;20043;-68
2021/08/18 14:01:22;;;;;;;42.67;11.68;;;;;;;;;;5093546;28;20051;-66
2021/08/18 14:04:26;;;;;;;28.02;9.43;;;;;;;;;;5093501;28;20035;-66
2021/08/18 14:07:30;;;;;;;22.92;8.90;;;;;;;;;;5093533;28;20435;-68
2021/08/18 14:10:35;;;;;;;27.30;9.93;;;;;;;;;;5093280;28;20044;-66
2021/08/18 14:13:39;;;;;;;28.88;9.35;;;;;;;;;;5093106;28;20495;-67
2021/08/18 14:16:45;;;;;;;24.98;9.70;;;;;;;;;;5093307;28;20047;-66
2021/08/18 14:19:49;;;;;;;24.88;10.50;;;;;;;;;;5093006;28;20512;-68
2021/08/18 14:22:53;;;;;;;26.60;8.82;;;;;;;;;;5092512;28;20043;-67
2021/08/18 14:26:02;;;;;;;27.85;9.98;;;;;;;;;;5092935;28;20526;-67
2021/08/18 14:29:07;;;;;;;20.40;8.52;;;;;;;;;;5093049;28;20040;-67
2021/08/18 14:32:11;;;;;;;29.95;9.48;;;;;;;;;;5093339;28;20526;-67
2021/08/18 14:35:15;;;;;;;20.33;8.63;;;;;;;;;;5092915;28;20039;-66
2021/08/18 14:38:20;;;;;;;32.17;9.88;;;;;;;;;;5092636;28;20042;-67
2021/08/18 14:41:26;;;;;;;21.40;8.90;;;;;;;;;;5092558;28;20051;-66
2021/08/18 14:44:30;;;;;;;30.05;8.57;;;;;;;;;;5092597;28;20526;-67
2021/08/18 14:47:35;;;;;;;24.48;9.07;;;;;;;;;;5092618;28;20040;-67
2021/08/18 14:50:39;;;;;;;24.27;8.98;;;;;;;;;;5092474;28;20032;-67
2021/08/18 14:53:43;;;;;;;22.58;9.38;;;;;;;;;;5092778;28;20493;-66
2021/08/18 14:56:47;;;;;;;29.27;9.20;;;;;;;;;;5092852;28;20048;-66
2021/08/18 14:59:51;;;;;;;21.85;8.50;;;;;;;;;;5091963;28;20040;-66
2021/08/18 15:02:56;;;;;;;30.20;10.88;;;;;;;;;;5092317;28;20510;-66
2021/08/18 15:06:00;;;;;;;20.92;9.10;;;;;;;;;;5092313;28;20043;-67
2021/08/18 15:09:05;;;;;;;21.88;9.38;;;;;;;;;;5092446;28;20039;-67
2021/08/18 15:12:09;;;;;;;22.88;8.88;;;;;;;;;;5091935;28;20039;-67
2021/08/18 15:15:13;;;;;;;37.25;10.07;;;;;;;;;;5091576;28;20043;-67
2021/08/18 15:18:18;;;;;;;25.80;9.75;;;;;;;;;;5092023;28;20051;-67
2021/08/18 15:21:22;;;;;;;27.33;9.93;;;;;;;;;;5091716;28;20052;-68
2021/08/18 15:24:28;;;;;;;23.92;10.05;;;;;;;;;;5091563;28;20487;-68
2021/08/18 15:27:32;;;;;;;22.85;9.82;;;;;;;;;;5091496;28;20063;-68
2021/08/18 15:30:36;;;;;;;30.75;9.65;;;;;;;;;;5091310;28;20040;-67
2021/08/18 15:33:41;;;;;;;31.83;10.55;;;;;;;;;;5090589;28;20036;-68
2021/08/18 15:36:46;;;;;;;29.10;10.00;;;;;;;;;;5091555;28;20027;-65
2021/08/18 15:39:52;;;;;;;22.75;9.25;;;;;;;;;;5091266;28;20421;-67
2021/08/18 15:42:57;;;;;;;24.38;9.77;;;;;;;;;;5091630;28;20483;-68
2021/08/18 15:46:01;;;;;;;23.25;9.10;;;;;;;;;;5091638;28;20024;-68
2021/08/18 15:49:05;;;;;;;25.23;10.90;;;;;;;;;;5090608;28;20028;-68
2021/08/18 15:52:11;;;;;;;38.97;11.68;;;;;;;;;;5091409;28;20043;-67
2021/08/18 15:55:15;;;;;;;25.00;9.77;;;;;;;;;;5091889;28;20043;-67
2021/08/18 15:58:19;;;;;;;27.50;9.38;;;;;;;;;;5091213;28;20040;-67
2021/08/18 16:01:23;;;;;;;24.00;10.32;;;;;;;;;;5091037;28;20050;-67
2021/08/18 16:04:28;;;;;;;32.30;10.02;;;;;;;;;;5091120;28;20043;-65
2021/08/18 16:07:33;;;;;;;25.85;10.35;;;;;;;;;;5091127;28;20043;-66
2021/08/18 16:10:38;;;;;;;22.60;9.05;;;;;;;;;;5091240;28;20054;-66
2021/08/18 16:13:42;;;;;;;23.50;9.77;;;;;;;;;;5091161;28;20039;-66
2021/08/18 16:16:47;;;;;;;22.23;8.85;;;;;;;;;;5091238;28;20382;-69
2021/08/18 16:19:51;;;;;;;22.80;9.00;;;;;;;;;;5090763;28;20047;-66
2021/08/18 16:22:55;;;;;;;27.73;10.10;;;;;;;;;;5090614;28;20036;-66
2021/08/18 16:26:01;;;;;;;28.98;9.38;;;;;;;;;;5090901;28;20051;-66
2021/08/18 16:29:05;;;;;;;34.10;10.10;;;;;;;;;;5090782;28;20036;-66
2021/08/18 16:32:11;;;;;;;20.35;8.68;;;;;;;;;;5090621;28;20391;-66
2021/08/18 16:35:15;;;;;;;30.75;10.13;;;;;;;;;;5090825;28;20051;-66
2021/08/18 16:38:19;;;;;;;28.90;10.93;;;;;;;;;;5090800;28;20039;-66
2021/08/18 16:41:24;;;;;;;38.10;10.93;;;;;;;;;;5090699;28;20059;-66
2021/08/18 16:44:28;;;;;;;28.55;10.55;;;;;;;;;;5090135;28;20034;-66
2021/08/18 16:47:33;;;;;;;24.67;9.88;;;;;;;;;;5090801;28;20043;-66
2021/08/18 16:50:37;;;;;;;28.27;11.18;;;;;;;;;;5090782;28;20294;-66
2021/08/18 16:53:41;;;;;;;26.98;11.30;;;;;;;;;;5089634;28;20040;-66
2021/08/18 16:56:45;;;;;;;27.52;10.55;;;;;;;;;;5090456;28;20538;-66
2021/08/18 16:59:50;;;;;;;35.72;11.30;;;;;;;;;;5090256;28;20055;-66
2021/08/18 17:02:54;;;;;;;30.35;10.93;;;;;;;;;;5090826;28;20139;-66
2021/08/18 17:05:59;;;;;;;26.00;10.63;;;;;;;;;;5090488;28;20047;-66
2021/08/18 17:09:04;;;;;;;35.63;13.32;;;;;;;;;;5090512;28;20039;-66
2021/08/18 17:12:09;;;;;;;27.92;11.82;;;;;;;;;;5090205;28;20047;-66
2021/08/18 17:15:13;;;;;;;24.35;12.20;;;;;;;;;;5088931;28;20044;-66
2021/08/18 17:18:17;;;;;;;31.73;11.98;;;;;;;;;;5090270;28;20047;-66
2021/08/18 17:21:21;;;;;;;27.95;12.70;;;;;;;;;;5090255;28;20047;-66
2021/08/18 17:24:26;;;;;;;30.67;12.95;;;;;;;;;;5090401;28;20035;-66
2021/08/18 17:27:30;;;;;;;35.42;13.70;;;;;;;;;;5090645;28;20046;-66
2021/08/18 17:30:34;;;;;;;33.83;14.00;;;;;;;;;;5090264;28;20391;-66
2021/08/18 17:33:39;;;;;;;31.85;14.55;;;;;;;;;;5090634;28;20115;-66
2021/08/18 17:36:43;;;;;;;28.63;13.68;;;;;;;;;;5093666;28;20045;-67
2021/08/18 17:39:47;;;;;;;38.65;15.15;;;;;;;;;;5093680;28;20047;-67
2021/08/18 17:42:53;;;;;;;32.70;13.70;;;;;;;;;;5092872;28;20038;-66
2021/08/18 17:45:58;;;;;;;33.70;15.25;;;;;;;;;;5093669;28;20055;-67
2021/08/18 17:49:04;;;;;;;29.73;13.00;;;;;;;;;;5093368;28;20043;-67
2021/08/18 17:52:08;;;;;;;31.88;13.13;;;;;;;;;;5093346;28;20043;-66
2021/08/18 17:55:12;;;;;;;29.10;13.45;;;;;;;;;;5093398;28;20364;-67
2021/08/18 17:58:17;;;;;;;28.92;12.85;;;;;;;;;;5093426;28;20062;-66
2021/08/18 18:01:21;;;;;;;32.67;13.30;;;;;;;;;;5093236;28;20047;-66
2021/08/18 18:04:25;;;;;;;34.55;13.82;;;;;;;;;;5093207;28;20289;-66
2021/08/18 18:07:30;;;;;;;35.38;14.05;;;;;;;;;;5093323;28;20114;-66